createdAt,value
2019-01-05T00:01:58.759Z,4.70
2019-01-05T00:04:42.649Z,4.70
2019-01-05T00:07:41.469Z,4.60
2019-01-05T00:10:27.873Z,4.70
2019-01-05T00:13:18.182Z,4.60
2019-01-05T00:16:21.650Z,4.60
2019-01-05T00:19:27.354Z,4.60
2019-01-05T00:22:16.107Z,4.60
2019-01-05T00:25:02.705Z,4.60
2019-01-05T00:27:59.715Z,4.50
2019-01-05T00:30:48.806Z,4.60
2019-01-05T00:33:52.539Z,4.70
2019-01-05T00:36:54.023Z,4.70
2019-01-05T00:39:45.907Z,4.70
2019-01-05T00:42:34.534Z,4.70
2019-01-05T00:45:16.549Z,4.70
2019-01-05T00:48:18.314Z,4.70
2019-01-05T00:51:10.193Z,4.70
2019-01-05T00:54:03.697Z,4.70
2019-01-05T00:56:54.870Z,4.70
2019-01-05T00:59:55.806Z,4.70
2019-01-05T01:02:56.281Z,4.70
2019-01-05T01:05:42.731Z,4.70
2019-01-05T01:08:29.938Z,4.70
2019-01-05T01:11:24.138Z,4.80
2019-01-05T01:14:10.490Z,4.80
2019-01-05T01:17:07.720Z,4.90
2019-01-05T01:19:58.570Z,4.90
2019-01-05T01:22:58.922Z,4.90
2019-01-05T01:25:45.355Z,4.90
2019-01-05T01:28:32.698Z,4.90
2019-01-05T01:31:13.634Z,4.90
2019-01-05T01:33:56.670Z,4.90
2019-01-05T01:36:44.825Z,4.90
2019-01-05T01:39:39.017Z,4.80
2019-01-05T01:42:28.189Z,4.80
2019-01-05T01:45:34.787Z,4.90
2019-01-05T01:48:26.881Z,4.90
2019-01-05T01:51:13.741Z,4.90
2019-01-05T01:54:11.586Z,4.80
2019-01-05T01:57:00.115Z,4.90
2019-01-05T01:59:55.051Z,4.90
2019-01-05T02:03:05.852Z,4.90
2019-01-05T02:05:54.997Z,4.90
2019-01-05T02:08:48.005Z,4.90
2019-01-05T02:11:43.647Z,5.00
2019-01-05T02:14:35.710Z,5.00
2019-01-05T02:17:29.864Z,5.10
2019-01-05T02:20:37.943Z,5.10
2019-01-05T02:23:56.533Z,5.10
2019-01-05T02:27:19.125Z,5.00
2019-01-05T02:30:44.014Z,5.00
2019-01-05T02:34:00.554Z,5.00
2019-01-05T02:37:29.082Z,5.00
2019-01-05T02:40:49.811Z,4.90
2019-01-05T02:44:13.653Z,4.90
2019-01-05T02:47:33.315Z,4.90
2019-01-05T02:50:48.744Z,5.00
2019-01-05T02:54:48.043Z,5.00
2019-01-05T02:58:20.426Z,5.00
2019-01-05T03:02:03.137Z,5.10
2019-01-05T03:05:35.164Z,5.10
2019-01-05T03:08:53.032Z,5.10
2019-01-05T03:12:04.970Z,5.20
2019-01-05T03:15:28.655Z,5.20
2019-01-05T03:18:59.992Z,5.30
2019-01-05T03:22:43.395Z,5.30
2019-01-05T03:26:19.706Z,5.20
2019-01-05T03:29:45.782Z,5.20
2019-01-05T03:33:16.197Z,5.30
2019-01-05T03:36:29.551Z,5.30
2019-01-05T03:40:01.635Z,5.30
2019-01-05T03:43:35.386Z,5.30
2019-01-05T03:47:01.778Z,5.30
2019-01-05T03:50:49.391Z,5.30
2019-01-05T03:54:29.065Z,5.30
2019-01-05T03:57:40.596Z,5.30
2019-01-05T04:01:03.886Z,5.40
2019-01-05T04:04:33.330Z,5.30
2019-01-05T04:07:45.458Z,5.30
2019-01-05T04:11:12.181Z,5.30
2019-01-05T04:14:45.055Z,5.40
2019-01-05T04:18:21.361Z,5.40
2019-01-05T04:21:42.382Z,5.40
2019-01-05T04:25:05.396Z,5.40
2019-01-05T04:28:17.989Z,5.50
2019-01-05T04:32:09.726Z,5.50
2019-01-05T04:35:43.731Z,5.50
2019-01-05T04:39:11.486Z,5.50
2019-01-05T04:42:49.970Z,5.50
2019-01-05T04:46:06.886Z,5.50
2019-01-05T04:49:58.537Z,5.50
2019-01-05T04:53:18.433Z,5.50
2019-01-05T04:56:55.863Z,5.50
2019-01-05T05:00:38.709Z,5.50
2019-01-05T05:04:04.930Z,5.50
2019-01-05T05:07:31.922Z,5.50
2019-01-05T05:11:11.775Z,5.60
2019-01-05T05:14:35.174Z,5.50
2019-01-05T05:17:50.049Z,5.60
2019-01-05T05:21:28.244Z,5.60
2019-01-05T05:24:59.396Z,5.60
2019-01-05T05:28:30.024Z,5.60
2019-01-05T05:32:25.977Z,5.60
2019-01-05T05:35:28.647Z,5.60
2019-01-05T05:39:16.198Z,5.70
2019-01-05T05:42:53.679Z,5.60
2019-01-05T05:46:29.259Z,5.70
2019-01-05T05:50:02.962Z,5.80
2019-01-05T05:53:29.119Z,5.70
2019-01-05T05:57:14.097Z,5.70
2019-01-05T06:01:16.142Z,5.80
2019-01-05T06:04:37.814Z,5.80
2019-01-05T06:07:52.564Z,5.70
2019-01-05T06:11:22.357Z,5.80
2019-01-05T06:14:50.552Z,5.90
2019-01-05T06:18:27.399Z,5.80
2019-01-05T06:21:39.495Z,5.80
2019-01-05T06:24:52.490Z,5.90
2019-01-05T06:28:18.724Z,5.90
2019-01-05T06:31:55.141Z,5.90
2019-01-05T06:35:20.959Z,5.90
2019-01-05T06:39:15.650Z,5.90
2019-01-05T06:42:50.410Z,6.00
2019-01-05T06:46:28.105Z,6.00
2019-01-05T06:50:09.903Z,6.00
2019-01-05T06:53:26.926Z,6.10
2019-01-05T06:57:08.884Z,6.10
2019-01-05T07:00:24.038Z,6.20
2019-01-05T07:03:43.732Z,6.20
2019-01-05T07:07:30.722Z,6.20
2019-01-05T07:10:55.791Z,6.20
2019-01-05T07:14:32.231Z,6.30
2019-01-05T07:18:03.628Z,6.30
2019-01-05T07:21:22.646Z,6.30
2019-01-05T07:24:49.453Z,6.30
2019-01-05T07:28:02.541Z,6.30
2019-01-05T07:31:31.629Z,6.40
2019-01-05T07:34:54.659Z,6.40
2019-01-05T07:38:19.735Z,6.40
2019-01-05T07:41:47.553Z,6.40
2019-01-05T07:45:15.378Z,6.50
2019-01-05T07:48:50.899Z,6.50
2019-01-05T07:52:13.303Z,6.40
2019-01-05T07:55:45.932Z,6.50
2019-01-05T07:59:20.321Z,6.60
2019-01-05T08:02:47.417Z,6.60
2019-01-05T08:06:10.686Z,6.60
2019-01-05T08:09:38.902Z,6.60
2019-01-05T08:13:19.865Z,6.70
2019-01-05T08:16:43.787Z,6.70
2019-01-05T08:20:04.940Z,6.70
2019-01-05T08:23:34.570Z,6.70
2019-01-05T08:26:57.904Z,6.70
2019-01-05T08:30:54.990Z,6.80
2019-01-05T08:34:28.862Z,6.80
2019-01-05T08:37:50.303Z,6.80
2019-01-05T08:41:21.203Z,6.80
2019-01-05T08:44:43.827Z,6.80
2019-01-05T08:48:13.551Z,6.80
2019-01-05T08:51:33.838Z,6.80
2019-01-05T08:54:45.881Z,6.80
2019-01-05T08:58:16.605Z,6.80
2019-01-05T09:01:43.653Z,6.80
2019-01-05T09:05:13.424Z,6.80
2019-01-05T09:08:59.054Z,6.80
2019-01-05T09:12:30.909Z,6.90
2019-01-05T09:16:08.361Z,6.80
2019-01-05T09:19:23.501Z,6.80
2019-01-05T09:22:47.280Z,6.80
2019-01-05T09:26:06.995Z,6.80
2019-01-05T09:29:34.035Z,6.80
2019-01-05T09:33:12.654Z,6.90
2019-01-05T09:37:01.073Z,6.90
2019-01-05T09:40:24.524Z,7.00
2019-01-05T09:43:42.055Z,7.00
2019-01-05T09:47:17.846Z,6.90
2019-01-05T09:50:44.191Z,7.00
2019-01-05T09:54:25.686Z,7.00
2019-01-05T09:58:24.767Z,6.90
2019-01-05T10:01:49.609Z,7.00
2019-01-05T10:04:55.538Z,7.00
2019-01-05T10:08:12.174Z,6.90
2019-01-05T10:11:55.513Z,7.00
2019-01-05T10:15:33.745Z,7.10
2019-01-05T10:18:58.981Z,7.10
2019-01-05T10:22:42.495Z,7.10
2019-01-05T10:26:13.743Z,7.10
2019-01-05T10:29:25.887Z,7.20
2019-01-05T10:32:52.249Z,7.30
2019-01-05T10:36:10.942Z,7.20
2019-01-05T10:39:49.525Z,7.30
2019-01-05T10:43:24.418Z,7.20
2019-01-05T10:46:49.581Z,7.30
2019-01-05T10:50:21.089Z,7.30
2019-01-05T10:53:47.370Z,7.40
2019-01-05T10:57:36.048Z,7.50
2019-01-05T11:01:37.902Z,7.60
2019-01-05T11:04:57.173Z,7.50
2019-01-05T11:08:43.383Z,7.60
2019-01-05T11:12:12.149Z,7.40
2019-01-05T11:15:39.939Z,7.50
2019-01-05T11:19:15.069Z,7.50
2019-01-05T11:23:04.113Z,7.50
2019-01-05T11:26:43.247Z,7.50
2019-01-05T11:30:32.481Z,7.40
2019-01-05T11:33:58.311Z,7.40
2019-01-05T11:37:32.814Z,7.40
2019-01-05T11:41:01.769Z,7.40
2019-01-05T11:44:53.460Z,7.50
2019-01-05T11:48:20.771Z,7.50
2019-01-05T11:51:48.988Z,7.50
2019-01-05T11:55:24.203Z,7.50
2019-01-05T11:58:42.503Z,7.50
2019-01-05T12:02:08.808Z,7.50
2019-01-05T12:05:35.357Z,7.50
2019-01-05T12:08:56.746Z,7.50
2019-01-05T12:12:51.549Z,7.70
2019-01-05T12:16:06.849Z,7.60
2019-01-05T12:19:55.897Z,7.50
2019-01-05T12:23:39.511Z,7.40
2019-01-05T12:27:08.609Z,7.40
2019-01-05T12:30:46.611Z,7.50
2019-01-05T12:34:09.031Z,7.40
2019-01-05T12:37:24.650Z,7.40
2019-01-05T12:41:12.884Z,7.50
2019-01-05T12:44:40.702Z,7.50
2019-01-05T12:48:11.571Z,7.40
2019-01-05T12:51:38.452Z,7.40
2019-01-05T12:55:23.317Z,7.40
2019-01-05T12:59:03.579Z,7.40
2019-01-05T13:02:35.973Z,7.50
2019-01-05T13:06:08.134Z,7.50
2019-01-05T13:09:30.666Z,7.40
2019-01-05T13:13:22.178Z,7.40
2019-01-05T13:16:25.228Z,7.40
2019-01-05T13:19:48.971Z,7.30
2019-01-05T13:23:36.215Z,7.40
2019-01-05T13:27:14.442Z,7.40
2019-01-05T13:30:35.000Z,7.40
2019-01-05T13:34:22.635Z,7.30
2019-01-05T13:37:50.154Z,7.30
2019-01-05T13:41:25.722Z,7.30
2019-01-05T13:44:49.963Z,7.30
2019-01-05T13:48:45.718Z,7.30
2019-01-05T13:52:20.388Z,7.30
2019-01-05T13:55:09.957Z,7.30
2019-01-05T13:58:01.241Z,7.30
2019-01-05T14:00:42.606Z,7.20
2019-01-05T14:03:42.799Z,7.20
2019-01-05T14:06:29.438Z,7.30
2019-01-05T14:09:17.543Z,7.20
2019-01-05T14:12:16.895Z,7.30
2019-01-05T14:15:10.698Z,7.30
2019-01-05T14:17:58.609Z,7.30
2019-01-05T14:20:54.998Z,7.30
2019-01-05T14:23:48.633Z,7.20
2019-01-05T14:26:39.640Z,7.20
2019-01-05T14:29:42.737Z,7.30
2019-01-05T14:32:33.816Z,7.30
2019-01-05T14:35:20.357Z,7.30
2019-01-05T14:38:11.366Z,7.20
2019-01-05T14:41:14.328Z,7.20
2019-01-05T14:44:20.633Z,7.30
2019-01-05T14:47:23.831Z,7.30
2019-01-05T14:50:08.805Z,7.30
2019-01-05T14:52:51.766Z,7.30
2019-01-05T14:55:38.546Z,7.30
2019-01-05T14:58:25.345Z,7.30
2019-01-05T15:01:12.098Z,7.30
2019-01-05T15:04:00.105Z,7.20
2019-01-05T15:06:57.144Z,7.20
2019-01-05T15:09:51.302Z,7.10
2019-01-05T15:12:45.400Z,7.10
2019-01-05T15:15:43.389Z,7.10
2019-01-05T15:18:29.794Z,7.10
2019-01-05T15:21:26.841Z,7.10
2019-01-05T15:24:14.814Z,7.10
2019-01-05T15:27:01.268Z,7.10
2019-01-05T15:29:55.192Z,7.00
2019-01-05T15:32:41.870Z,7.00
2019-01-05T15:35:39.541Z,6.90
2019-01-05T15:38:26.259Z,6.90
2019-01-05T15:41:20.366Z,6.90
2019-01-05T15:44:07.070Z,6.90
2019-01-05T15:46:59.793Z,6.90
2019-01-05T15:49:46.029Z,6.80
2019-01-05T15:52:32.526Z,6.90
2019-01-05T15:55:27.688Z,6.90
2019-01-05T15:58:15.721Z,6.90
2019-01-05T16:01:03.232Z,6.80
2019-01-05T16:03:49.689Z,6.80
2019-01-05T16:06:49.802Z,6.80
2019-01-05T16:09:39.603Z,6.80
2019-01-05T16:12:37.453Z,6.80
2019-01-05T16:15:28.556Z,6.80
2019-01-05T16:18:23.608Z,6.70
2019-01-05T16:21:14.687Z,6.80
2019-01-05T16:24:03.866Z,6.80
2019-01-05T16:26:50.615Z,6.80
2019-01-05T16:29:44.851Z,6.80
2019-01-05T16:32:50.884Z,6.80
2019-01-05T16:35:50.498Z,6.80
2019-01-05T16:38:37.257Z,6.80
2019-01-05T16:41:25.369Z,6.80
2019-01-05T16:44:11.742Z,6.80
2019-01-05T16:47:02.807Z,6.80
2019-01-05T16:49:50.699Z,6.80
2019-01-05T16:52:33.823Z,6.80
2019-01-05T16:55:27.657Z,6.80
2019-01-05T16:58:18.447Z,6.80
2019-01-05T17:01:22.476Z,6.80
2019-01-05T17:04:03.563Z,6.80
2019-01-05T17:07:02.735Z,6.80
2019-01-05T17:09:52.991Z,6.70
2019-01-05T17:12:54.139Z,6.80
2019-01-05T17:15:40.079Z,6.70
2019-01-05T17:18:28.058Z,6.70
2019-01-05T17:21:25.187Z,6.80
2019-01-05T17:24:16.069Z,6.80
2019-01-05T17:27:02.653Z,6.80
2019-01-05T17:29:56.814Z,6.80
2019-01-05T17:32:46.295Z,6.80
2019-01-05T17:35:32.706Z,6.80
2019-01-05T17:38:20.179Z,6.80
2019-01-05T17:41:06.748Z,6.80
2019-01-05T17:43:48.134Z,6.80
2019-01-05T17:46:34.849Z,6.80
2019-01-05T17:49:27.710Z,6.80
2019-01-05T17:52:14.589Z,6.80
2019-01-05T17:55:02.144Z,6.80
2019-01-05T17:57:56.154Z,6.70
2019-01-05T18:00:44.389Z,6.80
2019-01-05T18:03:31.233Z,6.80
2019-01-05T18:06:23.382Z,6.70
2019-01-05T18:09:29.749Z,6.80
2019-01-05T18:12:20.476Z,6.80
2019-01-05T18:15:14.441Z,6.70
2019-01-05T18:18:00.804Z,6.70
2019-01-05T18:21:02.853Z,6.70
2019-01-05T18:23:49.645Z,6.70
2019-01-05T18:26:36.353Z,6.70
2019-01-05T18:29:33.787Z,6.70
2019-01-05T18:32:27.810Z,6.70
2019-01-05T18:35:13.476Z,6.60
2019-01-05T18:38:07.372Z,6.70
2019-01-05T18:41:07.686Z,6.70
2019-01-05T18:43:58.562Z,6.70
2019-01-05T18:46:45.369Z,6.70
2019-01-05T18:49:24.075Z,6.70
2019-01-05T18:52:11.063Z,6.70
2019-01-05T18:54:57.926Z,6.70
2019-01-05T18:57:55.188Z,6.70
2019-01-05T19:00:42.963Z,6.80
2019-01-05T19:03:34.578Z,6.80
2019-01-05T19:06:22.417Z,6.70
2019-01-05T19:09:08.885Z,6.80
2019-01-05T19:11:55.566Z,6.80
2019-01-05T19:14:43.698Z,6.70
2019-01-05T19:17:30.630Z,6.70
2019-01-05T19:20:21.270Z,6.70
2019-01-05T19:23:08.173Z,6.70
2019-01-05T19:26:14.701Z,6.70
2019-01-05T19:29:11.769Z,6.70
2019-01-05T19:31:58.338Z,6.70
2019-01-05T19:34:40.854Z,6.70
2019-01-05T19:37:37.520Z,6.70
2019-01-05T19:40:24.826Z,6.70
2019-01-05T19:43:12.065Z,6.60
2019-01-05T19:45:58.549Z,6.50
2019-01-05T19:48:45.093Z,6.50
2019-01-05T19:51:22.989Z,6.50
2019-01-05T19:54:25.898Z,6.60
2019-01-05T19:57:13.121Z,6.60
2019-01-05T20:00:04.074Z,6.60
2019-01-05T20:02:53.164Z,6.60
2019-01-05T20:05:40.146Z,6.60
2019-01-05T20:08:43.318Z,6.60
2019-01-05T20:11:43.300Z,6.60
2019-01-05T20:14:40.354Z,6.60
2019-01-05T20:17:23.676Z,6.60
2019-01-05T20:20:10.495Z,6.50
2019-01-05T20:22:57.018Z,6.50
2019-01-05T20:25:48.938Z,6.50
2019-01-05T20:28:34.077Z,6.50
2019-01-05T20:31:17.674Z,6.50
2019-01-05T20:34:05.671Z,6.50
2019-01-05T20:36:59.473Z,6.50
2019-01-05T20:39:43.183Z,6.50
2019-01-05T20:42:32.140Z,6.50
2019-01-05T20:45:23.069Z,6.50
2019-01-05T20:48:10.996Z,6.40
2019-01-05T20:50:57.807Z,6.50
2019-01-05T20:53:44.624Z,6.50
2019-01-05T20:56:43.258Z,6.50
2019-01-05T20:59:43.413Z,6.40
2019-01-05T21:02:29.821Z,6.50
2019-01-05T21:05:16.300Z,6.50
2019-01-05T21:08:15.514Z,6.50
2019-01-05T21:11:07.156Z,6.50
2019-01-05T21:13:58.226Z,6.40
2019-01-05T21:16:38.959Z,6.40
2019-01-05T21:19:25.430Z,6.40
2019-01-05T21:22:16.547Z,6.40
2019-01-05T21:25:22.703Z,6.40
2019-01-05T21:28:09.061Z,6.40
2019-01-05T21:30:55.583Z,6.40
2019-01-05T21:34:01.782Z,6.50
2019-01-05T21:36:49.931Z,6.50
2019-01-05T21:39:36.429Z,6.40
2019-01-05T21:42:42.588Z,6.40
2019-01-05T21:45:29.270Z,6.40
2019-01-05T21:48:15.779Z,6.50
2019-01-05T21:51:02.290Z,6.40
2019-01-05T21:53:49.049Z,6.40
2019-01-05T21:56:34.098Z,6.40
2019-01-05T21:59:25.305Z,6.40
2019-01-05T22:02:07.169Z,6.40
2019-01-05T22:04:53.989Z,6.40
2019-01-05T22:07:38.743Z,6.40
2019-01-05T22:10:36.398Z,6.40
2019-01-05T22:13:30.495Z,6.40
2019-01-05T22:16:12.686Z,6.50
2019-01-05T22:18:59.128Z,6.50
2019-01-05T22:21:45.809Z,6.50
2019-01-05T22:24:43.135Z,6.60
2019-01-05T22:27:40.094Z,6.50
2019-01-05T22:30:27.615Z,6.50
2019-01-05T22:33:12.075Z,6.50
2019-01-05T22:36:12.286Z,6.50
2019-01-05T22:39:03.356Z,6.60
2019-01-05T22:41:51.468Z,6.50
2019-01-05T22:44:48.451Z,6.50
2019-01-05T22:47:35.257Z,6.50
2019-01-05T22:50:22.601Z,6.60
2019-01-05T22:53:12.878Z,6.60
2019-01-05T22:56:09.543Z,6.50
2019-01-05T22:59:06.685Z,6.60
2019-01-05T23:01:57.426Z,6.50
2019-01-05T23:04:44.236Z,6.60
2019-01-05T23:07:41.626Z,6.60
2019-01-05T23:10:29.751Z,6.50
2019-01-05T23:13:29.698Z,6.50
2019-01-05T23:16:19.593Z,6.50
2019-01-05T23:19:16.390Z,6.50
2019-01-05T23:22:04.457Z,6.50
2019-01-05T23:25:00.994Z,6.50
2019-01-05T23:28:01.007Z,6.50
2019-01-05T23:31:00.046Z,6.50
2019-01-05T23:33:59.971Z,6.60
2019-01-05T23:37:03.375Z,6.50
2019-01-05T23:40:06.618Z,6.60
2019-01-05T23:42:53.402Z,6.50
2019-01-05T23:45:47.174Z,6.50
2019-01-05T23:48:35.098Z,6.40
2019-01-05T23:51:34.575Z,6.40
2019-01-05T23:54:21.298Z,6.40
2019-01-05T23:57:07.844Z,6.50
2019-01-05T23:59:54.407Z,6.40
